Time;durP1;ratioP1;P1;durP2;ratioP2;P2;SDS_P1;SDS_P2;PMS_P1;PMS_P2;Temp;Humidity;BMP_temperature;BMP_pressure;BME280_temperature;BME280_humidity;BME280_pressure;Samples;Min_cycle;Max_cycle;Signal;HPM_P1;HPM_P2
2023/10/17 00:02:24;;;;;;;7.70;6.07;;;7.90;99.90;;;;;;5093071;28;20568;-77
2023/10/17 00:04:51;;;;;;;8.03;6.10;;;7.90;99.90;;;;;;5097179;28;20480;-77
2023/10/17 00:07:20;;;;;;;13.53;6.60;;;7.80;99.90;;;;;;5085840;28;20457;-77
2023/10/17 00:09:48;;;;;;;8.83;6.70;;;7.90;99.90;;;;;;5096825;28;21038;-78
2023/10/17 00:12:33;;;;;;;12.20;6.43;;;7.90;99.90;;;;;;5094077;28;20476;-78
2023/10/17 00:15:13;;;;;;;8.83;6.80;;;7.90;99.90;;;;;;5085253;28;20535;-78
2023/10/17 00:17:40;;;;;;;7.80;5.97;;;7.80;99.90;;;;;;5095563;28;20451;-77
2023/10/17 00:20:16;;;;;;;9.03;6.37;;;7.90;99.90;;;;;;5096738;28;20539;-78
2023/10/17 00:22:43;;;;;;;9.47;5.73;;;7.90;99.90;;;;;;5088616;28;20840;-78
2023/10/17 00:25:10;;;;;;;8.33;6.47;;;7.90;99.90;;;;;;5096966;28;20552;-77
2023/10/17 00:27:37;;;;;;;12.07;6.83;;;7.90;99.90;;;;;;5091529;28;20540;-78
2023/10/17 00:30:07;;;;;;;8.93;6.10;;;7.90;99.90;;;;;;5090313;28;21028;-77
2023/10/17 00:32:40;;;;;;;12.43;7.23;;;8.00;99.90;;;;;;5097471;28;20473;-77
2023/10/17 00:35:13;;;;;;;9.30;5.90;;;8.00;99.90;;;;;;5095356;28;20448;-77
2023/10/17 00:37:46;;;;;;;8.17;5.70;;;7.90;99.90;;;;;;5094863;28;20819;-77
2023/10/17 00:40:34;;;;;;;6.60;5.43;;;7.90;99.90;;;;;;5092086;28;20800;-78
2023/10/17 00:43:04;;;;;;;8.80;6.00;;;7.90;99.90;;;;;;5095953;28;20489;-77
2023/10/17 00:45:33;;;;;;;9.30;6.63;;;8.00;99.90;;;;;;5084642;28;20478;-78
2023/10/17 00:48:01;;;;;;;8.73;6.37;;;8.00;99.90;;;;;;5087731;28;20455;-78
2023/10/17 00:50:29;;;;;;;12.40;7.47;;;8.00;99.90;;;;;;5087749;28;20504;-78
2023/10/17 00:52:56;;;;;;;9.43;6.10;;;8.00;99.90;;;;;;5082953;28;20541;-78
2023/10/17 00:55:26;;;;;;;10.30;6.23;;;8.00;99.90;;;;;;5086544;28;20543;-78
2023/10/17 00:57:54;;;;;;;8.50;6.77;;;8.00;99.90;;;;;;5094516;28;20458;-78
2023/10/17 01:00:23;;;;;;;10.43;6.37;;;8.00;99.90;;;;;;5094581;28;20445;-76
2023/10/17 01:02:52;;;;;;;12.07;6.90;;;8.10;99.90;;;;;;5093761;28;20492;-77
2023/10/17 01:05:20;;;;;;;9.47;6.30;;;8.10;99.90;;;;;;5092818;28;20463;-77
2023/10/17 01:07:47;;;;;;;9.03;7.40;;;8.10;99.90;;;;;;5094772;28;21014;-78
2023/10/17 01:10:16;;;;;;;9.17;6.20;;;8.10;99.90;;;;;;5086939;28;21050;-77
2023/10/17 01:12:52;;;;;;;9.37;7.20;;;8.10;99.90;;;;;;5079864;28;20484;-77
2023/10/17 01:15:20;;;;;;;7.67;6.07;;;8.20;99.90;;;;;;5083985;28;20455;-78
2023/10/17 01:17:47;;;;;;;12.30;6.00;;;8.20;99.90;;;;;;5094471;28;20451;-77
2023/10/17 01:20:19;;;;;;;9.47;7.23;;;8.20;99.90;;;;;;5087283;28;20448;-77
2023/10/17 01:22:46;;;;;;;9.33;6.20;;;8.20;99.90;;;;;;5080209;28;20826;-78
2023/10/17 01:25:24;;;;;;;7.47;5.87;;;8.30;99.90;;;;;;5079345;28;20449;-77
2023/10/17 01:27:52;;;;;;;12.20;7.13;;;8.30;99.90;;;;;;5087388;28;20467;-78
2023/10/17 01:30:19;;;;;;;8.33;6.93;;;8.30;99.90;;;;;;5091523;28;20490;-78
2023/10/17 01:32:47;;;;;;;7.90;6.57;;;8.30;99.90;;;;;;5095183;28;20552;-77
2023/10/17 01:35:19;;;;;;;8.03;7.00;;;8.30;99.90;;;;;;5086240;28;20519;-78
2023/10/17 01:37:46;;;;;;;10.53;6.60;;;8.30;99.90;;;;;;5093652;28;20447;-78
2023/10/17 01:40:22;;;;;;;8.83;6.93;;;8.30;99.90;;;;;;5094495;28;20446;-78
2023/10/17 01:42:49;;;;;;;12.83;6.67;;;8.40;99.90;;;;;;5082598;28;20487;-78
2023/10/17 01:45:16;;;;;;;10.00;6.50;;;8.40;99.90;;;;;;5091595;28;20460;-78
2023/10/17 01:47:43;;;;;;;6.60;5.43;;;8.40;99.90;;;;;;5091666;28;20972;-78
2023/10/17 01:50:10;;;;;;;8.10;6.70;;;8.40;99.90;;;;;;5086072;28;20488;-78
2023/10/17 01:52:42;;;;;;;8.30;6.90;;;8.40;99.90;;;;;;5095921;28;21006;-79
2023/10/17 01:55:10;;;;;;;9.70;6.40;;;8.40;99.90;;;;;;5093183;28;20464;-79
2023/10/17 01:57:40;;;;;;;11.67;7.43;;;8.30;99.90;;;;;;5094621;28;20459;-78
2023/10/17 02:00:13;;;;;;;9.50;5.90;;;8.40;99.90;;;;;;5093011;28;20488;-78
2023/10/17 02:02:42;;;;;;;7.60;6.80;;;8.30;99.90;;;;;;5095543;28;20549;-78
2023/10/17 02:05:12;;;;;;;8.80;7.10;;;8.30;99.90;;;;;;5089949;28;20455;-79
2023/10/17 02:07:39;;;;;;;8.27;6.33;;;8.30;99.90;;;;;;5094627;28;20482;-78
2023/10/17 02:10:08;;;;;;;8.23;6.37;;;8.30;99.90;;;;;;5088954;28;21116;-78
2023/10/17 02:12:36;;;;;;;7.13;6.40;;;8.30;99.90;;;;;;5082793;28;20473;-78
2023/10/17 02:15:06;;;;;;;8.90;6.73;;;8.30;99.90;;;;;;5074037;28;20472;-77
2023/10/17 02:17:35;;;;;;;10.00;7.03;;;8.30;99.90;;;;;;5073713;28;20468;-78
2023/10/17 02:20:20;;;;;;;9.27;6.60;;;8.20;99.90;;;;;;5076941;28;20453;-78
2023/10/17 02:22:49;;;;;;;8.67;6.30;;;8.20;99.90;;;;;;5069937;28;20891;-77
2023/10/17 02:25:21;;;;;;;9.30;6.63;;;8.20;99.90;;;;;;5084658;28;20543;-78
2023/10/17 02:27:48;;;;;;;11.17;6.70;;;8.20;99.90;;;;;;5095389;28;20509;-78
2023/10/17 02:30:20;;;;;;;7.90;6.77;;;8.20;99.90;;;;;;5098180;28;20564;-77
2023/10/17 02:32:52;;;;;;;7.40;6.40;;;8.30;99.90;;;;;;5097835;28;20464;-77
2023/10/17 02:35:22;;;;;;;7.43;6.30;;;8.30;99.90;;;;;;5098601;28;20444;-77
2023/10/17 02:37:49;;;;;;;12.00;6.10;;;8.30;99.90;;;;;;5108278;28;20460;-77
2023/10/17 02:40:20;;;;;;;10.47;6.93;;;8.30;99.90;;;;;;5117389;28;20495;-76
2023/10/17 02:42:48;;;;;;;8.00;5.90;;;8.20;99.90;;;;;;5116641;28;20489;-77
2023/10/17 02:45:24;;;;;;;7.70;6.50;;;8.20;99.90;;;;;;5096889;28;20460;-77
2023/10/17 02:47:53;;;;;;;6.37;5.67;;;8.20;99.90;;;;;;5092363;28;20980;-77
2023/10/17 02:50:26;;;;;;;7.93;6.23;;;8.20;99.90;;;;;;5091136;28;20577;-78
2023/10/17 02:52:53;;;;;;;6.57;5.60;;;8.20;99.90;;;;;;5098161;28;20557;-77
2023/10/17 02:55:24;;;;;;;9.80;6.20;;;8.10;99.90;;;;;;5085027;28;20861;-77
2023/10/17 02:57:52;;;;;;;7.43;6.63;;;8.10;99.90;;;;;;5096410;28;20443;-77
2023/10/17 03:00:22;;;;;;;10.10;7.10;;;8.10;99.90;;;;;;5096105;28;20472;-77
2023/10/17 03:02:52;;;;;;;8.87;7.17;;;8.10;99.90;;;;;;5084574;28;20510;-78
2023/10/17 03:05:19;;;;;;;9.13;6.53;;;8.10;99.90;;;;;;5094494;28;20455;-77
2023/10/17 03:07:49;;;;;;;8.43;6.87;;;8.10;99.90;;;;;;5086901;28;20978;-77
2023/10/17 03:10:25;;;;;;;7.10;6.40;;;8.10;99.90;;;;;;5098678;28;20487;-78
2023/10/17 03:12:55;;;;;;;7.63;6.73;;;8.10;99.90;;;;;;5089027;28;20480;-78
2023/10/17 03:15:23;;;;;;;10.03;6.77;;;8.10;99.90;;;;;;5096288;28;20455;-77
2023/10/17 03:17:54;;;;;;;7.40;5.93;;;8.10;99.90;;;;;;5098535;28;20483;-78
2023/10/17 03:20:22;;;;;;;10.10;7.20;;;8.10;99.90;;;;;;5099012;28;20491;-79
2023/10/17 03:22:50;;;;;;;9.77;6.80;;;8.10;99.90;;;;;;5098181;28;21012;-76
2023/10/17 03:25:19;;;;;;;9.10;6.90;;;8.10;99.90;;;;;;5094755;28;20466;-76
2023/10/17 03:27:49;;;;;;;8.10;5.87;;;8.00;99.90;;;;;;5096678;28;20444;-78
2023/10/17 03:30:19;;;;;;;9.40;6.73;;;8.00;99.90;;;;;;5096851;28;20536;-79
2023/10/17 03:33:02;;;;;;;7.10;5.97;;;8.00;99.90;;;;;;5092803;28;20468;-77
2023/10/17 03:35:35;;;;;;;10.40;6.40;;;8.00;99.90;;;;;;5094958;28;20494;-78
2023/10/17 03:38:02;;;;;;;9.50;6.00;;;8.00;99.90;;;;;;5092171;28;20482;-78
2023/10/17 03:40:30;;;;;;;8.90;7.00;;;8.10;99.90;;;;;;5079844;28;20887;-78
2023/10/17 03:43:04;;;;;;;8.60;6.57;;;8.10;99.90;;;;;;5096010;28;20464;-78
2023/10/17 03:45:43;;;;;;;6.97;6.27;;;8.10;99.90;;;;;;5097391;28;20461;-79
2023/10/17 03:48:14;;;;;;;6.80;5.90;;;8.10;99.90;;;;;;5080029;28;20532;-77
2023/10/17 03:50:57;;;;;;;8.53;7.23;;;8.10;99.90;;;;;;5096908;28;20485;-78
2023/10/17 03:53:28;;;;;;;7.03;6.13;;;8.10;99.90;;;;;;5097224;28;20571;-77
2023/10/17 03:55:55;;;;;;;7.83;6.40;;;8.10;99.90;;;;;;5088056;28;20461;-78
2023/10/17 03:58:29;;;;;;;10.03;6.33;;;8.10;99.90;;;;;;5094825;28;20674;-77
2023/10/17 04:00:58;;;;;;;5.70;5.10;;;8.10;99.90;;;;;;5099834;28;20469;-77
2023/10/17 04:03:27;;;;;;;9.80;6.60;;;8.10;99.90;;;;;;5091843;28;20483;-77
2023/10/17 04:06:13;;;;;;;6.83;5.90;;;8.10;99.90;;;;;;5084633;28;20959;-78
2023/10/17 04:08:48;;;;;;;7.97;6.03;;;8.00;99.90;;;;;;5097729;28;20449;-76
2023/10/17 04:11:18;;;;;;;10.90;6.47;;;8.00;99.90;;;;;;5082558;28;20486;-77
2023/10/17 04:13:48;;;;;;;10.43;6.50;;;8.00;99.90;;;;;;5072479;28;20450;-77
2023/10/17 04:16:16;;;;;;;10.73;6.27;;;8.10;99.90;;;;;;5078970;28;20448;-77
2023/10/17 04:18:48;;;;;;;8.37;6.47;;;8.10;99.90;;;;;;5090018;28;20450;-77
2023/10/17 04:21:26;;;;;;;12.37;6.67;;;8.10;99.90;;;;;;5100055;28;20959;-76
2023/10/17 04:23:55;;;;;;;7.20;6.50;;;8.10;99.90;;;;;;5072736;28;20441;-77
2023/10/17 04:26:28;;;;;;;7.50;6.17;;;8.00;99.90;;;;;;5078786;28;20960;-77
2023/10/17 04:28:56;;;;;;;8.30;6.00;;;8.10;99.90;;;;;;5099496;28;20448;-78
2023/10/17 04:31:26;;;;;;;8.60;6.30;;;8.00;99.90;;;;;;5096803;28;20490;-78
2023/10/17 04:33:58;;;;;;;7.30;5.93;;;8.00;99.90;;;;;;5099209;28;20457;-77
2023/10/17 04:36:27;;;;;;;6.03;5.30;;;8.10;99.90;;;;;;5081249;28;20458;-80
2023/10/17 04:39:11;;;;;;;6.40;5.43;;;8.00;99.90;;;;;;5083367;28;20462;-77
2023/10/17 04:41:49;;;;;;;10.00;5.93;;;8.10;99.90;;;;;;5087386;28;20552;-77
2023/10/17 04:44:18;;;;;;;5.87;5.20;;;8.00;99.90;;;;;;5078841;28;20506;-79
2023/10/17 04:46:50;;;;;;;7.97;5.93;;;8.10;99.90;;;;;;5081733;28;20479;-78
2023/10/17 04:49:21;;;;;;;12.50;7.23;;;8.10;99.90;;;;;;5092981;28;20536;-77
2023/10/17 04:51:52;;;;;;;7.27;5.20;;;8.10;99.90;;;;;;5091920;28;20879;-78
2023/10/17 04:54:22;;;;;;;7.10;5.40;;;8.20;99.90;;;;;;5079763;28;20449;-77
2023/10/17 04:56:59;;;;;;;8.30;6.20;;;8.10;99.90;;;;;;5095450;28;20514;-77
2023/10/17 04:59:41;;;;;;;10.77;6.43;;;8.10;99.90;;;;;;5096284;28;20444;-78
2023/10/17 05:08:04;;;;;;;7.73;5.87;;;8.00;99.90;;;;;;5071113;28;20493;-77
2023/10/17 06:19:15;;;;;;;11.57;7.00;;;8.20;99.90;;;;;;5086597;28;20502;-78
2023/10/17 06:22:35;;;;;;;11.20;7.20;;;8.20;99.90;;;;;;5087304;28;20519;-79
2023/10/17 06:30:33;;;;;;;7.90;6.67;;;8.10;99.90;;;;;;5074514;28;20533;-79
2023/10/17 06:33:17;;;;;;;7.60;6.77;;;8.20;99.90;;;;;;5080956;28;20479;-79
2023/10/17 06:35:52;;;;;;;8.87;6.63;;;8.20;99.90;;;;;;5076612;28;20446;-77
2023/10/17 06:38:19;;;;;;;8.53;6.83;;;8.20;99.90;;;;;;5075939;28;20452;-77
2023/10/17 06:40:51;;;;;;;9.10;7.10;;;8.20;99.90;;;;;;5077297;28;20501;-79
2023/10/17 06:43:27;;;;;;;9.90;7.50;;;8.20;99.90;;;;;;5077713;28;20563;-79
2023/10/17 06:45:57;;;;;;;9.03;6.30;;;8.20;99.90;;;;;;5077727;28;20449;-81
2023/10/17 06:48:33;;;;;;;14.50;7.00;;;8.30;99.90;;;;;;5080952;28;20494;-80
2023/10/17 06:51:29;;;;;;;14.30;7.00;;;8.30;99.90;;;;;;5081450;28;20508;-80
2023/10/17 06:54:05;;;;;;;8.93;7.13;;;8.30;99.90;;;;;;5087227;28;20442;-78
2023/10/17 06:56:38;;;;;;;9.57;7.50;;;8.30;99.90;;;;;;5079269;28;20447;-78
2023/10/17 06:59:21;;;;;;;7.50;6.70;;;8.40;99.90;;;;;;5085680;28;20461;-77
2023/10/17 07:01:55;;;;;;;9.53;6.97;;;8.30;99.90;;;;;;5071591;28;21070;-79
2023/10/17 07:04:25;;;;;;;8.63;7.33;;;8.30;99.90;;;;;;5083512;28;20560;-79
2023/10/17 07:06:53;;;;;;;10.20;6.50;;;8.40;99.90;;;;;;5083591;28;20492;-78
2023/10/17 07:09:24;;;;;;;8.60;6.57;;;8.50;99.90;;;;;;5076515;28;20480;-78
2023/10/17 07:11:52;;;;;;;9.80;6.97;;;8.50;99.90;;;;;;5085612;28;20487;-79
2023/10/17 07:14:25;;;;;;;9.77;6.83;;;8.50;99.90;;;;;;5086931;28;20944;-78
2023/10/17 07:17:00;;;;;;;9.90;7.20;;;8.60;99.90;;;;;;5096156;28;20453;-80
2023/10/17 07:19:46;;;;;;;9.73;6.67;;;8.60;99.90;;;;;;5080505;28;20469;-81
2023/10/17 07:22:15;;;;;;;9.40;6.63;;;8.60;99.90;;;;;;5078740;28;20468;-80
2023/10/17 07:24:48;;;;;;;8.80;7.60;;;8.60;99.90;;;;;;5081093;28;20820;-81
2023/10/17 07:27:26;;;;;;;9.30;7.10;;;8.70;99.90;;;;;;5077835;28;20450;-79
2023/10/17 07:30:00;;;;;;;9.33;7.30;;;8.70;99.90;;;;;;5081369;28;20448;-78
2023/10/17 07:32:35;;;;;;;10.03;6.63;;;8.80;99.90;;;;;;5076843;28;21068;-78
2023/10/17 07:35:04;;;;;;;11.93;8.10;;;8.80;99.90;;;;;;5086726;28;20458;-79
2023/10/17 07:37:39;;;;;;;11.40;7.83;;;8.80;99.90;;;;;;5088405;28;20496;-79
2023/10/17 07:40:23;;;;;;;7.90;5.93;;;8.80;99.90;;;;;;5084187;28;20490;-78
2023/10/17 07:42:52;;;;;;;11.97;6.30;;;8.90;99.90;;;;;;5075202;28;20480;-78
2023/10/17 07:45:21;;;;;;;12.00;7.60;;;9.00;99.90;;;;;;5087241;28;20533;-78
2023/10/17 07:47:53;;;;;;;12.13;7.57;;;9.00;99.90;;;;;;5074326;28;20542;-78
2023/10/17 07:50:25;;;;;;;8.90;6.50;;;9.10;99.90;;;;;;5078397;28;20477;-78
2023/10/17 07:52:54;;;;;;;8.57;7.40;;;9.00;99.90;;;;;;5084534;28;20526;-78
2023/10/17 07:55:23;;;;;;;10.80;7.97;;;9.10;99.90;;;;;;5083066;28;20485;-79
2023/10/17 07:57:52;;;;;;;9.13;8.23;;;9.10;99.90;;;;;;5077908;28;20483;-78
2023/10/17 08:00:26;;;;;;;7.07;5.90;;;9.10;99.90;;;;;;5074996;28;20443;-79
2023/10/17 08:02:56;;;;;;;8.47;6.80;;;9.20;99.90;;;;;;5080217;28;20485;-79
2023/10/17 08:05:25;;;;;;;12.03;7.43;;;9.30;99.90;;;;;;5069815;28;20642;-78
2023/10/17 08:08:03;;;;;;;11.90;6.50;;;9.30;99.90;;;;;;5077328;28;20507;-78
2023/10/17 08:10:33;;;;;;;9.87;7.13;;;9.30;99.90;;;;;;5070840;28;20439;-78
2023/10/17 08:13:00;;;;;;;8.17;6.60;;;9.30;99.90;;;;;;5078039;28;20467;-78
2023/10/17 08:15:36;;;;;;;9.37;7.10;;;9.40;99.90;;;;;;5072001;28;20451;-79
2023/10/17 08:18:05;;;;;;;10.23;7.53;;;9.40;99.90;;;;;;5082678;28;20460;-78
2023/10/17 08:23:22;;;;;;;10.33;7.93;;;9.30;99.90;;;;;;5075260;28;20544;-79
2023/10/17 08:25:59;;;;;;;11.53;7.97;;;9.30;99.90;;;;;;5077427;28;20489;-78
2023/10/17 08:28:33;;;;;;;7.53;6.83;;;9.30;99.90;;;;;;5078821;28;20446;-79
2023/10/17 08:31:06;;;;;;;11.87;7.80;;;9.40;99.90;;;;;;5081352;28;20481;-79
2023/10/17 08:33:37;;;;;;;10.80;8.33;;;9.40;99.90;;;;;;5089222;28;20470;-79
2023/10/17 08:36:06;;;;;;;8.20;7.40;;;9.40;99.90;;;;;;5093771;28;20455;-79
2023/10/17 08:38:33;;;;;;;12.00;9.00;;;9.40;99.90;;;;;;5096723;28;20548;-79
2023/10/17 08:41:06;;;;;;;8.50;7.47;;;9.30;99.90;;;;;;5084153;28;20942;-79
2023/10/17 08:43:33;;;;;;;10.30;7.00;;;9.40;99.90;;;;;;5093840;28;20517;-79
2023/10/17 08:46:00;;;;;;;10.30;7.47;;;9.50;99.90;;;;;;5091350;28;20448;-79
2023/10/17 08:48:28;;;;;;;9.43;8.20;;;9.50;99.90;;;;;;5069868;28;20542;-79
2023/10/17 08:50:57;;;;;;;8.90;8.00;;;9.50;99.90;;;;;;5082612;28;20460;-79
2023/10/17 08:53:24;;;;;;;8.47;7.60;;;9.60;99.90;;;;;;5082438;28;20465;-78
2023/10/17 08:55:52;;;;;;;9.77;7.60;;;9.60;99.90;;;;;;5077270;28;21062;-79
2023/10/17 08:58:24;;;;;;;8.70;7.80;;;9.70;99.90;;;;;;5078910;28;20455;-78
2023/10/17 09:00:57;;;;;;;9.37;6.63;;;9.80;99.90;;;;;;5076413;28;20533;-79
2023/10/17 09:03:28;;;;;;;10.43;6.73;;;9.90;99.90;;;;;;5079949;28;21075;-79
2023/10/17 09:06:28;;;;;;;9.00;6.83;;;9.90;99.90;;;;;;5076502;28;20458;-79
2023/10/17 09:08:56;;;;;;;8.23;6.73;;;10.00;99.90;;;;;;5077684;28;20447;-79
2023/10/17 09:11:34;;;;;;;8.30;6.50;;;10.10;99.90;;;;;;5077802;28;20485;-79
2023/10/17 09:14:17;;;;;;;8.83;5.87;;;10.10;99.90;;;;;;5073934;28;20453;-79
2023/10/17 09:16:51;;;;;;;7.80;5.77;;;10.20;99.90;;;;;;5075675;28;20441;-79
2023/10/17 09:19:20;;;;;;;12.63;6.43;;;10.20;99.90;;;;;;5074005;28;20477;-79
2023/10/17 09:21:50;;;;;;;7.67;5.77;;;10.30;99.90;;;;;;5073714;28;20478;-79
2023/10/17 09:24:35;;;;;;;7.77;6.07;;;10.40;99.90;;;;;;5076250;28;20450;-78
2023/10/17 09:27:12;;;;;;;7.80;6.10;;;10.40;99.90;;;;;;5075287;28;20454;-79
2023/10/17 09:29:46;;;;;;;6.67;5.63;;;10.40;99.90;;;;;;5079521;28;20528;-79
2023/10/17 09:32:13;;;;;;;7.90;5.53;;;10.40;99.90;;;;;;5058838;28;20566;-78
2023/10/17 09:34:42;;;;;;;7.60;6.47;;;10.50;99.90;;;;;;5057156;28;21817;-77
2023/10/17 09:37:13;;;;;;;8.30;6.90;;;10.50;99.90;;;;;;5077981;28;21020;-78
2023/10/17 09:39:47;;;;;;;6.50;5.70;;;10.60;99.90;;;;;;5088447;28;20443;-79
2023/10/17 09:42:14;;;;;;;7.80;6.53;;;10.70;99.90;;;;;;5083082;28;20545;-78
2023/10/17 09:44:42;;;;;;;7.40;5.70;;;10.70;99.90;;;;;;5085307;28;20458;-78
2023/10/17 09:47:10;;;;;;;7.90;5.87;;;10.80;99.90;;;;;;5074358;28;21318;-78
2023/10/17 09:49:40;;;;;;;6.90;5.90;;;10.90;99.90;;;;;;5080526;28;20519;-77
2023/10/17 09:52:09;;;;;;;8.07;6.00;;;11.00;99.90;;;;;;5075964;28;20882;-77
2023/10/17 09:54:41;;;;;;;7.20;5.67;;;11.10;99.90;;;;;;5052354;28;20459;-77
2023/10/17 09:57:13;;;;;;;10.10;6.10;;;11.10;99.90;;;;;;5074866;28;20451;-77
2023/10/17 09:59:46;;;;;;;11.00;5.80;;;11.20;99.90;;;;;;5075292;28;20445;-77
2023/10/17 10:02:17;;;;;;;8.17;5.33;;;11.30;99.90;;;;;;5053683;28;21015;-77
2023/10/17 10:04:44;;;;;;;7.73;5.33;;;11.40;99.90;;;;;;5055553;28;20456;-77
2023/10/17 10:07:22;;;;;;;7.23;5.30;;;11.50;99.90;;;;;;5072445;28;20539;-77
2023/10/17 10:09:50;;;;;;;7.27;5.60;;;11.50;99.90;;;;;;5071334;28;20468;-77
2023/10/17 10:12:17;;;;;;;6.80;5.57;;;11.70;99.90;;;;;;5062781;28;20492;-78
2023/10/17 10:14:44;;;;;;;6.53;4.50;;;11.80;99.90;;;;;;5078844;28;20451;-77
2023/10/17 10:17:14;;;;;;;8.43;5.07;;;12.10;99.90;;;;;;5079340;28;20458;-77
2023/10/17 10:20:04;;;;;;;5.30;3.77;;;12.50;99.90;;;;;;5057002;28;21172;-77
2023/10/17 10:22:52;;;;;;;6.03;4.73;;;13.40;99.90;;;;;;5080773;28;20469;-77
2023/10/17 10:25:22;;;;;;;5.30;4.73;;;14.20;99.90;;;;;;5092320;28;20458;-77
2023/10/17 10:27:58;;;;;;;5.80;4.27;;;15.00;99.90;;;;;;5092568;28;20544;-77
2023/10/17 10:30:36;;;;;;;7.33;4.33;;;15.50;99.90;;;;;;5088099;28;20451;-77
2023/10/17 10:33:04;;;;;;;6.33;4.10;;;16.10;99.90;;;;;;5081241;28;20862;-78
2023/10/17 10:35:33;;;;;;;6.70;4.03;;;16.50;99.90;;;;;;5091134;28;20860;-77
2023/10/17 10:38:00;;;;;;;6.23;4.00;;;16.90;99.90;;;;;;5079621;28;20465;-78
2023/10/17 10:40:32;;;;;;;8.40;4.70;;;17.20;99.90;;;;;;5085929;28;20553;-78
2023/10/17 10:43:01;;;;;;;6.13;4.13;;;17.40;99.90;;;;;;5081765;28;20504;-78
2023/10/17 10:45:36;;;;;;;8.50;4.70;;;17.70;99.90;;;;;;5076244;28;20490;-78
2023/10/17 10:48:07;;;;;;;5.50;4.00;;;18.00;99.90;;;;;;5076410;28;20478;-79
2023/10/17 10:50:35;;;;;;;5.30;3.80;;;18.20;99.90;;;;;;5073400;28;20438;-78
2023/10/17 10:53:03;;;;;;;5.23;3.60;;;18.30;99.90;;;;;;5074820;28;20497;-78
2023/10/17 10:55:31;;;;;;;5.73;3.53;;;18.20;99.90;;;;;;5078816;28;20466;-78
2023/10/17 10:58:03;;;;;;;4.57;3.57;;;18.50;99.90;;;;;;5088402;28;20825;-78
2023/10/17 11:00:31;;;;;;;5.43;3.70;;;18.80;99.90;;;;;;5076613;28;20456;-79
2023/10/17 11:02:59;;;;;;;4.30;3.60;;;19.00;99.90;;;;;;5071273;28;20866;-78
2023/10/17 11:05:26;;;;;;;5.10;4.20;;;19.20;99.90;;;;;;5079574;28;20459;-78
2023/10/17 11:08:02;;;;;;;5.27;3.33;;;19.50;99.90;;;;;;5083037;28;20461;-78
2023/10/17 11:10:31;;;;;;;6.07;4.07;;;19.50;99.90;;;;;;5080040;28;20458;-79
2023/10/17 11:12:58;;;;;;;3.97;3.57;;;19.70;99.90;;;;;;5082433;28;20486;-78
2023/10/17 11:15:27;;;;;;;4.93;3.63;;;20.00;99.90;;;;;;5078489;28;20457;-78
2023/10/17 11:18:06;;;;;;;5.00;3.03;;;20.10;99.90;;;;;;5075525;28;20455;-78
2023/10/17 11:20:34;;;;;;;4.47;3.27;;;20.30;99.90;;;;;;5076455;28;20442;-79
2023/10/17 11:23:03;;;;;;;4.37;3.63;;;20.30;99.80;;;;;;5073516;28;20974;-79
2023/10/17 11:25:34;;;;;;;7.83;3.47;;;20.30;1.00;;;;;;5073390;28;20447;-78
2023/10/17 11:28:06;;;;;;;5.57;2.77;;;20.40;99.90;;;;;;5071766;28;20856;-78
2023/10/17 11:30:39;;;;;;;3.60;3.00;;;20.40;99.90;;;;;;5051747;28;20513;-78
2023/10/17 11:33:10;;;;;;;6.17;3.20;;;20.50;99.90;;;;;;5077075;28;20483;-79
2023/10/17 11:35:37;;;;;;;3.03;2.47;;;20.40;99.90;;;;;;5082441;28;20479;-79
2023/10/17 11:38:07;;;;;;;3.70;3.30;;;20.60;99.90;;;;;;5080809;28;20848;-79
2023/10/17 11:40:43;;;;;;;5.10;2.90;;;20.60;99.90;;;;;;5073997;28;20512;-78
2023/10/17 11:43:18;;;;;;;6.60;3.53;;;20.60;99.90;;;;;;5073835;28;20524;-79
2023/10/17 11:45:46;;;;;;;5.60;3.27;;;20.60;99.90;;;;;;5068839;28;20947;-77
2023/10/17 11:48:29;;;;;;;4.07;2.70;;;20.40;99.90;;;;;;5074611;28;20457;-78
2023/10/17 11:51:07;;;;;;;3.90;2.67;;;20.80;99.90;;;;;;5072502;28;20965;-77
2023/10/17 11:53:34;;;;;;;3.77;2.60;;;21.00;99.90;;;;;;5074194;28;20486;-77
2023/10/17 11:56:03;;;;;;;6.73;3.00;;;21.10;99.90;;;;;;5075664;28;20549;-78
2023/10/17 11:58:34;;;;;;;3.10;2.07;;;21.00;99.90;;;;;;5074528;28;20450;-77
2023/10/17 12:01:02;;;;;;;6.23;2.97;;;21.30;99.90;;;;;;5077056;28;20478;-80
2023/10/17 12:03:29;;;;;;;4.27;3.10;;;21.20;99.90;;;;;;5074171;28;20574;-78
2023/10/17 12:05:57;;;;;;;4.43;2.70;;;21.60;99.90;;;;;;5072295;28;20457;-77
2023/10/17 12:08:22;;;;;;;3.77;2.97;;;21.80;99.90;;;;;;5075207;28;20467;-77
2023/10/17 12:10:51;;;;;;;5.43;2.80;;;21.80;99.90;;;;;;5075721;28;20798;-78
2023/10/17 12:13:19;;;;;;;4.73;2.50;;;22.20;99.90;;;;;;5074940;28;20486;-78
2023/10/17 12:15:47;;;;;;;4.70;2.40;;;21.90;99.90;;;;;;5072742;28;20453;-78
2023/10/17 12:18:14;;;;;;;4.43;3.30;;;22.10;99.90;;;;;;5030995;28;20447;-78
2023/10/17 12:20:49;;;;;;;5.70;3.30;;;21.90;99.90;;;;;;5075585;28;20438;-78
2023/10/17 12:23:18;;;;;;;3.30;2.90;;;22.10;99.90;;;;;;5074814;28;20982;-78
2023/10/17 12:25:45;;;;;;;3.70;3.07;;;21.50;99.90;;;;;;5074076;28;20454;-78
2023/10/17 12:28:12;;;;;;;4.73;3.10;;;21.20;99.90;;;;;;5072748;28;20959;-79
2023/10/17 12:30:40;;;;;;;4.70;2.80;;;21.10;99.90;;;;;;5072031;28;20962;-78
2023/10/17 12:33:08;;;;;;;3.90;2.80;;;21.40;99.90;;;;;;5059183;28;20495;-78
2023/10/17 12:35:39;;;;;;;4.00;2.80;;;21.40;99.90;;;;;;5076642;28;20451;-80
2023/10/17 12:38:14;;;;;;;4.23;2.90;;;21.40;99.90;;;;;;5076604;28;20450;-80
2023/10/17 12:40:41;;;;;;;4.47;2.93;;;21.20;99.90;;;;;;5074741;28;20457;-79
2023/10/17 12:43:11;;;;;;;5.23;3.70;;;21.60;99.90;;;;;;5076817;28;20998;-80
2023/10/17 12:45:39;;;;;;;3.30;2.50;;;21.30;99.90;;;;;;5076052;28;20986;-78
2023/10/17 12:48:10;;;;;;;3.87;2.77;;;21.30;99.90;;;;;;5076181;28;20547;-79
2023/10/17 12:50:43;;;;;;;5.07;3.20;;;21.30;99.90;;;;;;5076944;28;20435;-78
2023/10/17 12:53:10;;;;;;;7.10;3.60;;;21.40;99.90;;;;;;5077735;28;20475;-78
2023/10/17 12:55:37;;;;;;;3.90;2.53;;;21.80;99.90;;;;;;5078526;28;20446;-78
2023/10/17 12:58:06;;;;;;;4.50;2.37;;;22.00;99.90;;;;;;5080513;28;20542;-79
2023/10/17 13:00:33;;;;;;;3.33;2.70;;;22.30;99.90;;;;;;5078048;28;20443;-78
2023/10/17 13:03:01;;;;;;;3.30;2.80;;;22.40;99.90;;;;;;5079676;28;21209;-78
2023/10/17 13:05:28;;;;;;;4.30;3.00;;;22.20;99.90;;;;;;5074571;28;20947;-79
2023/10/17 13:07:54;;;;;;;5.43;2.70;;;22.80;99.90;;;;;;5043422;28;21103;-80
2023/10/17 13:10:21;;;;;;;3.30;2.37;;;22.70;99.90;;;;;;5077606;28;20482;-79
2023/10/17 13:12:48;;;;;;;3.60;2.10;;;23.40;99.90;;;;;;5081135;28;20558;-79
2023/10/17 13:15:16;;;;;;;5.20;2.70;;;23.60;99.90;;;;;;5051731;28;20538;-79
2023/10/17 13:17:43;;;;;;;4.87;2.80;;;24.20;99.90;;;;;;5080299;28;20867;-80
2023/10/17 13:20:14;;;;;;;3.40;3.07;;;24.70;99.90;;;;;;5040637;28;21152;-80
2023/10/17 13:22:46;;;;;;;3.20;2.90;;;24.30;99.90;;;;;;5087694;28;20497;-80
2023/10/17 13:25:13;;;;;;;4.90;2.90;;;23.40;99.90;;;;;;5082933;28;20473;-81
2023/10/17 13:27:40;;;;;;;5.30;2.90;;;24.10;99.90;;;;;;5086051;28;20470;-80
2023/10/17 13:30:09;;;;;;;4.10;3.00;;;24.30;99.90;;;;;;5093748;28;20433;-80
2023/10/17 13:32:36;;;;;;;4.80;2.80;;;24.30;99.90;;;;;;5087869;28;20494;-81
2023/10/17 13:35:03;;;;;;;3.40;2.57;;;24.70;99.90;;;;;;5073922;28;20477;-79
2023/10/17 13:37:31;;;;;;;3.97;3.17;;;25.00;99.90;;;;;;5078792;28;20450;-79
2023/10/17 13:39:58;;;;;;;4.03;3.23;;;25.20;99.90;;;;;;5081281;28;20489;-79
2023/10/17 13:42:27;;;;;;;2.93;2.63;;;24.70;99.90;;;;;;5085021;28;20473;-80
2023/10/17 13:44:54;;;;;;;5.40;3.53;;;24.50;99.90;;;;;;5086420;28;20500;-80
2023/10/17 13:47:21;;;;;;;2.97;2.67;;;24.20;99.90;;;;;;5089513;28;20510;-80
2023/10/17 13:49:49;;;;;;;4.73;3.03;;;23.80;99.90;;;;;;5086411;28;20441;-79
2023/10/17 13:52:17;;;;;;;3.40;2.60;;;23.50;99.90;;;;;;5080960;28;20487;-80
2023/10/17 13:54:46;;;;;;;2.67;2.27;;;23.40;99.90;;;;;;5092980;28;20454;-79
2023/10/17 13:57:16;;;;;;;4.90;3.47;;;22.50;99.90;;;;;;5075959;28;20482;-79
2023/10/17 13:59:47;;;;;;;3.00;2.20;;;20.90;99.90;;;;;;5080854;28;20459;-79
2023/10/17 14:02:17;;;;;;;4.77;2.97;;;20.20;99.90;;;;;;5078884;28;20555;-79
2023/10/17 14:04:45;;;;;;;5.07;2.50;;;19.20;99.90;;;;;;5068856;28;20463;-78
2023/10/17 14:07:12;;;;;;;5.83;2.77;;;18.40;99.90;;;;;;5082242;28;20548;-79
2023/10/17 14:09:40;;;;;;;3.30;2.20;;;18.00;99.90;;;;;;5090081;28;20464;-78
2023/10/17 14:12:09;;;;;;;5.30;2.50;;;17.50;99.90;;;;;;5091959;28;20471;-78
2023/10/17 14:14:36;;;;;;;3.47;2.53;;;17.10;99.90;;;;;;5099626;28;20488;-78
2023/10/17 14:17:04;;;;;;;5.50;2.70;;;16.60;99.90;;;;;;5101446;28;20455;-77
2023/10/17 14:19:44;;;;;;;7.87;3.17;;;16.30;1.00;;;;;;5097561;28;20449;-78
2023/10/17 14:22:21;;;;;;;4.10;2.80;;;15.80;1.00;;;;;;5090187;28;20458;-78
2023/10/17 14:25:00;;;;;;;3.23;2.33;;;15.50;1.00;;;;;;5083763;28;20427;-78
2023/10/17 14:27:29;;;;;;;4.70;2.63;;;15.40;1.00;;;;;;5092360;28;20458;-80
2023/10/17 14:29:59;;;;;;;5.57;3.30;;;15.20;1.00;;;;;;5102554;28;20452;-79
2023/10/17 14:32:27;;;;;;;4.30;2.70;;;15.10;97.70;;;;;;5095620;28;20477;-78
2023/10/17 14:34:56;;;;;;;4.73;2.50;;;15.00;37.50;;;;;;5107544;28;20459;-77